Time;durP1;ratioP1;P1;durP2;ratioP2;P2;SDS_P1;SDS_P2;PMS_P1;PMS_P2;Temp;Humidity;BMP_temperature;BMP_pressure;BME280_temperature;BME280_humidity;BME280_pressure;Samples;Min_cycle;Max_cycle;Signal;HPM_P1;HPM_P2
2021/04/11 00:01:07;;;;;;;3.57;1.20;;;;;;;4.82;100.00;101477.47;1856473;77;26244;-72
2021/04/11 00:03:37;;;;;;;5.33;1.77;;;;;;;4.84;100.00;101482.19;1856468;77;26237;-72
2021/04/11 00:06:07;;;;;;;4.40;1.27;;;;;;;4.77;100.00;101481.45;1892117;76;26188;-72
2021/04/11 00:08:38;;;;;;;1.80;1.20;;;;;;;4.65;100.00;101489.34;1824171;79;26227;-72
2021/04/11 00:11:07;;;;;;;4.53;1.50;;;;;;;4.55;100.00;101487.96;1892197;76;26247;-72
2021/04/11 00:13:39;;;;;;;2.87;1.37;;;;;;;4.55;100.00;101487.96;1824179;79;26629;-72
2021/04/11 00:16:10;;;;;;;2.43;1.23;;;;;;;4.39;100.00;101486.36;1892089;76;26616;-72
2021/04/11 00:18:40;;;;;;;5.33;1.30;;;;;;;4.38;100.00;101494.30;1856586;77;26204;-72
2021/04/11 00:21:10;;;;;;;5.47;1.50;;;;;;;4.42;100.00;101487.27;1892316;76;26186;-72
2021/04/11 00:23:40;;;;;;;5.43;1.60;;;;;;;4.37;100.00;101487.95;1856602;77;26212;-72
2021/04/11 00:26:10;;;;;;;5.23;1.63;;;;;;;4.32;100.00;101485.05;1892237;76;26614;-72
2021/04/11 00:28:40;;;;;;;7.73;1.70;;;;;;;4.19;100.00;101484.37;1856556;77;26671;-72
2021/04/11 00:31:10;;;;;;;4.50;1.43;;;;;;;4.09;100.00;101489.86;1892192;76;26273;-72
2021/04/11 00:33:43;;;;;;;5.07;1.60;;;;;;;4.10;100.00;101498.42;1860162;76;26233;-72
2021/04/11 00:36:15;;;;;;;5.03;2.47;;;;;;;4.00;100.00;101504.11;1864382;77;26193;-72
2021/04/11 00:38:46;;;;;;;4.50;2.37;;;;;;;3.96;100.00;101491.36;1864379;77;26189;-72
2021/04/11 00:41:20;;;;;;;4.07;1.70;;;;;;;4.23;100.00;101490.56;1864410;77;26648;-72
2021/04/11 00:43:51;;;;;;;6.13;1.70;;;;;;;4.02;100.00;101486.31;1864288;77;26190;-72
2021/04/11 00:46:27;;;;;;;5.83;1.83;;;;;;;3.92;100.00;101490.13;1864360;77;26283;-72
2021/04/11 00:48:58;;;;;;;7.77;1.67;;;;;;;4.05;100.00;101483.66;1864488;77;26241;-72
2021/04/11 00:51:31;;;;;;;2.93;1.60;;;;;;;3.85;100.00;101485.77;1864373;77;26625;-72
2021/04/11 00:54:02;;;;;;;5.37;1.60;;;;;;;3.64;100.00;101496.07;1864392;77;26235;-72
2021/04/11 00:56:34;;;;;;;4.53;1.47;;;;;;;3.62;100.00;101491.35;1864364;77;26695;-72
2021/04/11 00:59:06;;;;;;;5.03;2.00;;;;;;;3.78;100.00;101484.97;1864367;77;26260;-72
2021/04/11 01:01:38;;;;;;;2.97;1.37;;;;;;;3.56;100.00;101494.13;1864361;77;26192;-72
2021/04/11 01:04:10;;;;;;;3.67;1.50;;;;;;;3.43;100.00;101490.11;1864460;77;26248;-72
2021/04/11 01:06:43;;;;;;;3.23;1.30;;;;;;;3.41;100.00;101493.63;1864321;76;26650;-72
2021/04/11 01:09:16;;;;;;;6.67;1.70;;;;;;;3.41;100.00;101497.22;1864376;77;26640;-72
2021/04/11 01:11:47;;;;;;;4.80;2.03;;;;;;;3.49;100.00;101492.83;1864445;77;26252;-72
2021/04/11 01:14:18;;;;;;;3.63;1.97;;;;;;;3.66;100.00;101487.09;1864474;77;26175;-71
2021/04/11 01:16:49;;;;;;;2.77;1.77;;;;;;;3.37;100.00;101491.02;1864368;77;26186;-73
2021/04/11 01:19:22;;;;;;;4.57;1.93;;;;;;;3.29;100.00;101488.02;1864473;77;26613;-72
2021/04/11 01:21:55;;;;;;;3.97;1.67;;;;;;;3.41;100.00;101487.61;1864462;77;26706;-72
2021/04/11 01:24:34;;;;;;;3.60;1.90;;;;;;;3.62;100.00;101478.14;1864564;77;26257;-72
2021/04/11 01:27:06;;;;;;;5.23;1.70;;;;;;;3.48;100.00;101488.39;1864342;77;26629;-72
2021/04/11 01:29:36;;;;;;;4.63;1.90;;;;;;;3.51;100.00;101483.81;1864306;77;26699;-72
2021/04/11 01:32:08;;;;;;;3.43;1.50;;;;;;;3.47;100.00;101486.70;1864294;77;26202;-72
2021/04/11 01:34:39;;;;;;;7.40;2.00;;;;;;;3.43;100.00;101484.09;1845754;77;26242;-72
2021/04/11 01:37:12;;;;;;;6.93;1.50;;;;;;;3.29;100.00;101489.39;1840228;78;26166;-72
2021/04/11 01:39:45;;;;;;;5.07;2.17;;;;;;;3.22;100.00;101485.83;1840424;77;26259;-73
2021/04/11 01:42:17;;;;;;;4.97;1.67;;;;;;;3.25;100.00;101483.19;1851047;77;26631;-73
2021/04/11 01:44:49;;;;;;;7.37;1.70;;;;;;;3.15;100.00;101487.27;1878784;76;26653;-73
2021/04/11 01:47:20;;;;;;;7.60;2.20;;;;;;;3.12;100.00;101481.37;1878923;76;26616;-73
2021/04/11 01:49:50;;;;;;;5.47;2.03;;;;;;;3.13;100.00;101485.78;1851186;77;26199;-73
2021/04/11 01:52:23;;;;;;;3.63;1.53;;;;;;;3.08;100.00;101485.63;1878782;76;26655;-73
2021/04/11 01:54:55;;;;;;;6.17;2.03;;;;;;;2.88;100.00;101495.84;1851395;77;26205;-73
2021/04/11 01:57:27;;;;;;;5.63;1.87;;;;;;;2.87;100.00;101494.19;1878830;76;26588;-73
2021/04/11 02:00:02;;;;;;;3.67;2.30;;;;;;;2.91;100.00;101494.06;1851404;77;26260;-73
2021/04/11 02:02:32;;;;;;;7.77;2.40;;;;;;;2.90;100.00;101497.86;1878804;76;26226;-73
2021/04/11 02:05:07;;;;;;;6.03;2.20;;;;;;;2.83;100.00;101497.03;1878861;76;26361;-73
2021/04/11 02:07:38;;;;;;;4.27;1.70;;;;;;;2.89;100.00;101506.62;1879001;75;26618;-73
2021/04/11 02:10:09;;;;;;;8.30;1.90;;;;;;;3.02;100.00;101504.33;1851259;77;26278;-73
2021/04/11 02:12:40;;;;;;;5.53;1.63;;;;;;;2.72;100.00;101501.31;1873008;76;26167;-73
2021/04/11 02:15:13;;;;;;;4.00;1.87;;;;;;;2.82;100.00;101511.83;1840237;78;26179;-73
2021/04/11 02:17:43;;;;;;;3.67;1.67;;;;;;;2.75;100.00;101508.58;1850783;77;26299;-72
2021/04/11 02:20:15;;;;;;;5.23;2.07;;;;;;;2.79;100.00;101508.13;1873193;76;26202;-72
2021/04/11 02:22:46;;;;;;;3.17;1.80;;;;;;;2.88;100.00;101505.45;1840689;77;26280;-72
2021/04/11 02:25:19;;;;;;;3.60;1.50;;;;;;;2.78;100.00;101511.95;1872936;76;26230;-71
2021/04/11 02:27:49;;;;;;;2.67;1.60;;;;;;;2.74;100.00;101504.67;1840732;77;26183;-72
2021/04/11 02:30:21;;;;;;;5.13;2.00;;;;;;;2.72;100.00;101504.91;1851403;77;26204;-72
2021/04/11 02:32:52;;;;;;;4.97;1.87;;;;;;;2.64;100.00;101509.27;1872979;76;26138;-71
2021/04/11 02:35:25;;;;;;;4.53;1.80;;;;;;;2.67;100.00;101507.98;1840770;76;26782;-71
2021/04/11 02:37:58;;;;;;;6.10;2.00;;;;;;;2.71;100.00;101510.59;1873008;76;26221;-73
2021/04/11 02:40:31;;;;;;;2.80;1.20;;;;;;;2.60;100.00;101513.51;1841041;77;26683;-71
2021/04/11 02:43:03;;;;;;;5.93;1.53;;;;;;;2.71;100.00;101518.30;1873123;76;26252;-72
2021/04/11 02:45:36;;;;;;;2.53;1.27;;;;;;;2.81;100.00;101519.74;1840405;77;26685;-72
2021/04/11 02:48:07;;;;;;;4.73;1.67;;;;;;;2.56;100.00;101523.23;1851291;77;26644;-73
2021/04/11 02:50:40;;;;;;;1.47;1.13;;;;;;;2.59;100.00;101532.91;1873025;76;26606;-71
2021/04/11 02:53:13;;;;;;;4.23;1.50;;;;;;;2.57;100.00;101528.16;1840555;77;26638;-72
2021/04/11 02:55:44;;;;;;;2.73;1.40;;;;;;;2.69;100.00;101531.94;1851323;77;26699;-73
2021/04/11 02:58:16;;;;;;;4.10;1.50;;;;;;;2.66;100.00;101535.09;1878845;76;26171;-74
2021/04/11 03:00:49;;;;;;;3.60;1.30;;;;;;;2.66;100.00;101534.56;1851377;77;26709;-72
2021/04/11 03:03:19;;;;;;;4.37;1.50;;;;;;;2.69;100.00;101537.42;1878816;76;26705;-72
2021/04/11 03:05:49;;;;;;;2.17;1.47;;;;;;;2.67;100.00;101534.88;1878857;76;26270;-72
2021/04/11 03:08:22;;;;;;;4.10;1.37;;;;;;;2.78;100.00;101533.91;1878850;75;26270;-73
2021/04/11 03:10:58;;;;;;;3.73;1.40;;;;;;;2.70;100.00;101536.34;1851523;77;26192;-72
2021/04/11 03:13:28;;;;;;;4.37;1.40;;;;;;;2.78;100.00;101533.91;1878703;76;26265;-72
2021/04/11 03:15:58;;;;;;;1.83;1.10;;;;;;;2.75;100.00;101534.64;1851349;77;26208;-72
2021/04/11 03:18:29;;;;;;;3.10;1.43;;;;;;;2.78;100.00;101530.64;1873009;76;26582;-74
2021/04/11 03:21:16;;;;;;;4.63;2.30;;;;;;;2.79;100.00;101535.04;1800165;80;33200;-73
2021/04/11 03:23:47;;;;;;;4.70;1.80;;;;;;;2.72;100.00;101532.86;1778873;80;26208;-73
2021/04/11 03:26:21;;;;;;;2.50;1.40;;;;;;;2.65;100.00;101533.42;1804340;79;26231;-73
2021/04/11 03:28:54;;;;;;;1.47;1.27;;;;;;;2.65;100.00;101533.42;1823806;79;26223;-72
2021/04/11 03:31:29;;;;;;;3.67;1.50;;;;;;;2.57;100.00;101545.98;1817971;78;26329;-73
2021/04/11 03:34:02;;;;;;;4.83;2.00;;;;;;;2.52;100.00;101543.06;1817672;79;26303;-72
2021/04/11 03:36:35;;;;;;;4.43;1.53;;;;;;;2.50;100.00;101543.27;1817608;77;26847;-73
2021/04/11 03:39:07;;;;;;;4.70;1.67;;;;;;;2.38;100.00;101547.73;1817681;78;26317;-74
2021/04/11 03:41:39;;;;;;;6.40;1.77;;;;;;;2.36;100.00;101546.25;1797664;79;26216;-73
2021/04/11 03:44:12;;;;;;;4.90;1.40;;;;;;;2.52;100.00;101550.77;1860808;76;26225;-72
2021/04/11 03:46:45;;;;;;;3.87;1.37;;;;;;;2.53;100.00;101557.06;1806227;79;26272;-72
2021/04/11 03:49:18;;;;;;;2.63;1.50;;;;;;;2.52;100.00;101560.36;1772981;79;26296;-72
2021/04/11 03:51:51;;;;;;;3.80;1.67;;;;;;;2.50;100.00;101561.62;1796904;78;26191;-73
2021/04/11 03:54:24;;;;;;;2.90;1.80;;;;;;;2.46;100.00;101563.95;1872079;76;26135;-72
2021/04/11 03:57:06;;;;;;;3.23;1.60;;;;;;;2.47;100.00;101564.80;1842214;76;26221;-73
2021/04/11 03:59:30;;;;;;;3.40;1.60;;;;;;;2.65;100.00;101565.78;1871371;76;26213;-73
2021/04/11 04:02:01;;;;;;;3.63;1.57;;;;;;;2.55;100.00;101571.42;1852784;77;930786;-73
2021/04/11 04:04:33;;;;;;;2.43;1.50;;;;;;;2.47;100.00;101571.66;1882732;76;26190;-73
2021/04/11 04:07:14;;;;;;;4.20;1.73;;;;;;;2.44;100.00;101567.42;1876913;75;26608;-72
2021/04/11 04:09:46;;;;;;;2.03;1.50;;;;;;;2.36;100.00;101573.66;1882538;76;26266;-72
2021/04/11 04:12:40;;;;;;;4.57;1.80;;;;;;;2.40;100.00;101574.92;1876535;76;26200;-72
2021/04/11 04:15:16;;;;;;;4.77;1.70;;;;;;;2.38;100.00;101578.42;1881621;76;26198;-72
2021/04/11 04:17:53;;;;;;;6.77;1.70;;;;;;;2.33;100.00;101584.54;1904965;75;26630;-73
2021/04/11 04:20:27;;;;;;;3.77;1.57;;;;;;;2.38;100.00;101584.75;1905107;75;26174;-72
2021/04/11 04:23:04;;;;;;;3.80;1.90;;;;;;;2.38;100.00;101588.02;1904778;75;26696;-72
2021/04/11 04:25:49;;;;;;;3.93;1.67;;;;;;;2.46;100.00;101586.41;1905109;75;26277;-71
2021/04/11 04:28:26;;;;;;;5.17;1.60;;;;;;;2.45;100.00;101588.83;1905227;74;26167;-71
2021/04/11 04:30:59;;;;;;;5.23;2.00;;;;;;;2.45;100.00;101590.20;1872956;76;26206;-73
2021/04/11 04:33:41;;;;;;;4.27;1.57;;;;;;;2.35;100.00;101587.92;1905194;75;26203;-73
2021/04/11 04:36:16;;;;;;;5.17;1.60;;;;;;;2.41;100.00;101593.06;1871894;75;26228;-72
2021/04/11 04:38:51;;;;;;;3.07;1.83;;;;;;;2.40;100.00;101593.58;1882150;76;26189;-73
2021/04/11 04:41:24;;;;;;;4.60;1.50;;;;;;;2.41;100.00;101598.02;1876989;76;26684;-72
2021/04/11 04:43:57;;;;;;;4.47;1.90;;;;;;;2.49;100.00;101599.69;1881581;76;26260;-72
2021/04/11 04:46:35;;;;;;;3.80;1.70;;;;;;;2.60;100.00;101601.27;1882848;76;26193;-71
2021/04/11 04:49:11;;;;;;;3.80;1.63;;;;;;;2.68;100.00;101606.52;1876549;76;26288;-73
2021/04/11 04:51:46;;;;;;;3.97;1.60;;;;;;;2.67;100.00;101606.72;1879335;76;26186;-72
2021/04/11 04:54:23;;;;;;;3.47;1.70;;;;;;;2.78;100.00;101601.96;1876846;76;26227;-73
2021/04/11 04:56:58;;;;;;;4.13;1.90;;;;;;;2.66;100.00;101613.25;1882484;76;26301;-72
2021/04/11 04:59:31;;;;;;;6.50;1.80;;;;;;;2.83;100.00;101617.22;1905241;75;26172;-72
2021/04/11 05:02:04;;;;;;;5.93;2.13;;;;;;;2.82;100.00;101622.41;1905493;75;26208;-72
2021/04/11 05:04:36;;;;;;;6.17;1.93;;;;;;;2.77;100.00;101629.59;1905303;75;26258;-72
2021/04/11 05:07:09;;;;;;;3.93;1.87;;;;;;;2.73;100.00;101620.96;1905225;74;26268;-71
2021/04/11 05:09:42;;;;;;;2.63;1.40;;;;;;;3.06;100.00;101624.95;1905349;74;26701;-72
2021/04/11 05:12:15;;;;;;;2.80;1.70;;;;;;;3.08;100.00;101620.11;1905364;74;26249;-72
2021/04/11 05:14:49;;;;;;;5.07;1.93;;;;;;;3.20;100.00;101626.60;1905411;75;26273;-73
2021/04/11 05:17:22;;;;;;;5.27;2.23;;;;;;;3.11;100.00;101625.16;1905404;75;26179;-71
2021/04/11 05:19:56;;;;;;;4.33;1.90;;;;;;;3.21;100.00;101631.01;1905320;74;26637;-73
2021/04/11 05:22:29;;;;;;;2.70;2.00;;;;;;;3.28;100.00;101632.37;1905393;74;26218;-71
2021/04/11 05:25:03;;;;;;;4.33;1.97;;;;;;;3.32;100.00;101628.97;1905557;74;26249;-73
2021/04/11 05:27:37;;;;;;;3.80;1.77;;;;;;;3.30;100.00;101633.82;1905369;75;26212;-73
2021/04/11 05:30:10;;;;;;;3.57;2.07;;;;;;;3.34;100.00;101636.44;1905485;75;26211;-71
2021/04/11 05:32:41;;;;;;;3.70;1.60;;;;;;;3.48;100.00;101638.59;1905258;75;26728;-70
2021/04/11 05:35:13;;;;;;;4.97;2.43;;;;;;;3.44;100.00;101645.59;1905279;75;26199;-71
2021/04/11 05:37:49;;;;;;;3.63;1.80;;;;;;;3.44;100.00;101647.81;1905325;75;26271;-70
2021/04/11 05:40:22;;;;;;;6.23;1.73;;;;;;;3.49;100.00;101651.28;1873022;76;26260;-70
2021/04/11 05:42:58;;;;;;;6.43;1.90;;;;;;;3.45;100.00;101661.02;1905316;74;26167;-70
2021/04/11 05:45:30;;;;;;;4.57;2.00;;;;;;;3.50;100.00;101665.33;1905262;75;26188;-70
2021/04/11 05:48:09;;;;;;;3.87;2.20;;;;;;;3.57;100.00;101671.09;1905422;75;26214;-70
2021/04/11 05:50:43;;;;;;;5.07;1.93;;;;;;;3.68;100.00;101671.76;1905212;74;26199;-70
2021/04/11 05:53:17;;;;;;;2.70;2.10;;;;;;;3.74;100.00;101681.56;1871705;76;26282;-70
2021/04/11 05:55:50;;;;;;;4.93;1.90;;;;;;;3.76;100.00;101680.30;1882575;76;26292;-73
2021/04/11 05:58:23;;;;;;;4.80;2.20;;;;;;;3.84;100.00;101683.31;1876879;76;26197;-70
2021/04/11 06:00:56;;;;;;;4.17;1.90;;;;;;;3.77;100.00;101687.98;1882761;76;26235;-70
2021/04/11 06:03:28;;;;;;;3.50;2.30;;;;;;;3.89;100.00;101688.99;1905448;75;26239;-73
2021/04/11 06:06:10;;;;;;;2.97;1.80;;;;;;;4.00;100.00;101694.63;1905326;75;26171;-70
2021/04/11 06:08:43;;;;;;;5.53;2.10;;;;;;;3.99;100.00;101701.70;1905377;74;26229;-72
2021/04/11 06:11:17;;;;;;;9.60;2.63;;;;;;;4.07;100.00;101700.91;1905520;74;26196;-70
2021/04/11 06:13:50;;;;;;;5.13;2.77;;;;;;;4.07;100.00;101711.06;1873052;76;26722;-74
2021/04/11 06:16:22;;;;;;;4.70;2.20;;;;;;;4.01;100.00;101715.55;1905351;75;26241;-73
2021/04/11 06:18:55;;;;;;;5.67;1.90;;;;;;;4.16;100.00;101718.51;1905211;75;26187;-71
2021/04/11 06:21:29;;;;;;;3.40;2.07;;;;;;;4.07;100.00;101716.55;1905153;75;26637;-73
2021/04/11 06:24:04;;;;;;;5.73;2.40;;;;;;;4.12;100.00;101726.36;1904879;75;26253;-75
2021/04/11 06:26:37;;;;;;;4.33;2.33;;;;;;;4.12;100.00;101727.20;1905314;74;26190;-72
2021/04/11 06:29:10;;;;;;;4.77;1.90;;;;;;;4.18;100.00;101733.73;1905256;75;26672;-73
2021/04/11 06:31:44;;;;;;;3.33;1.90;;;;;;;4.11;100.00;101736.52;1905586;75;26692;-72
2021/04/11 06:34:17;;;;;;;4.50;2.50;;;;;;;4.18;100.00;101738.39;1905374;75;26248;-74
2021/04/11 06:36:50;;;;;;;5.67;2.53;;;;;;;4.27;100.00;101741.19;1894338;75;26333;-72
2021/04/11 06:39:24;;;;;;;3.60;2.07;;;;;;;4.28;100.00;101740.95;1862031;77;26181;-74
2021/04/11 06:42:35;;;;;;;3.90;2.40;;;;;;;4.29;100.00;101743.17;1865852;77;26170;-72
2021/04/11 06:45:16;;;;;;;4.57;2.23;;;;;;;4.30;100.00;101747.61;1865748;77;26174;-72
2021/04/11 06:48:23;;;;;;;5.60;2.93;;;;;;;4.36;100.00;101745.36;1839569;78;26215;-72
2021/04/11 06:51:15;;;;;;;3.43;2.87;;;;;;;4.42;100.00;101754.08;1863620;77;26166;-71
2021/04/11 06:54:09;;;;;;;4.37;2.70;;;;;;;4.46;100.00;101752.56;1809422;78;26295;-72
2021/04/11 06:56:52;;;;;;;5.03;3.43;;;;;;;4.47;100.00;101754.26;1864059;77;26185;-74
2021/04/11 06:59:31;;;;;;;5.93;2.70;;;;;;;4.63;100.00;101753.70;1865856;77;26183;-75
2021/04/11 07:02:43;;;;;;;4.40;2.90;;;;;;;4.65;100.00;101763.13;1865933;77;26189;-73
2021/04/11 07:05:18;;;;;;;5.13;2.43;;;;;;;4.78;100.00;101760.27;1828001;78;26190;-77
2021/04/11 07:08:31;;;;;;;4.33;2.40;;;;;;;4.84;100.00;101765.70;1865177;77;26207;-77
2021/04/11 07:11:39;;;;;;;5.47;2.83;;;;;;;4.89;100.00;101765.87;1865899;77;26178;-75
2021/04/11 07:14:31;;;;;;;6.13;2.50;;;;;;;4.97;100.00;101765.58;1864590;77;26190;-73
2021/04/11 07:17:16;;;;;;;4.33;2.30;;;;;;;5.12;100.00;101763.86;1827998;78;26205;-74
2021/04/11 07:20:12;;;;;;;4.07;2.27;;;;;;;5.29;100.00;101758.59;1809052;78;26233;-74
2021/04/11 07:23:21;;;;;;;4.53;2.47;;;;;;;5.35;100.00;101767.31;1840555;78;26236;-74
2021/04/11 07:26:07;;;;;;;3.87;1.90;;;;;;;5.37;100.00;101765.19;1841480;78;26175;-72
2021/04/11 07:28:42;;;;;;;3.50;2.10;;;;;;;5.51;100.00;101772.24;1841714;78;26238;-73
2021/04/11 07:31:26;;;;;;;4.37;1.73;;;;;;;5.61;100.00;101769.77;1841397;78;26264;-72
2021/04/11 07:34:13;;;;;;;4.37;2.00;;;;;;;5.82;100.00;101769.30;1839899;78;26312;-73
2021/04/11 07:37:07;;;;;;;3.47;1.60;;;;;;;6.07;100.00;101767.86;1841374;78;26190;-75
2021/04/11 07:39:55;;;;;;;4.67;2.13;;;;;;;6.08;100.00;101761.24;1856456;77;26351;-74
2021/04/11 07:42:49;;;;;;;4.10;1.80;;;;;;;6.34;100.00;101765.54;1856928;77;26768;-73
2021/04/11 07:45:43;;;;;;;1.93;1.40;;;;;;;6.53;100.00;101764.41;1838765;76;26239;-75
2021/04/11 07:48:32;;;;;;;3.63;1.90;;;;;;;6.67;100.00;101766.43;1854977;76;26213;-76
2021/04/11 07:51:29;;;;;;;3.47;1.97;;;;;;;6.86;100.00;101770.23;1855940;77;26289;-74
2021/04/11 07:54:33;;;;;;;4.67;1.97;;;;;;;6.97;100.00;101764.97;1856528;77;26193;-74
2021/04/11 07:57:46;;;;;;;5.37;2.00;;;;;;;7.09;100.00;101768.03;1856777;77;26682;-74
2021/04/11 08:01:00;;;;;;;3.00;1.90;;;;;;;7.21;100.00;101766.64;1856765;77;26211;-74
2021/04/11 08:03:50;;;;;;;4.27;2.13;;;;;;;7.31;100.00;101775.19;1856067;77;26214;-73
2021/04/11 08:06:43;;;;;;;4.00;1.87;;;;;;;7.58;100.00;101770.80;1855858;76;26226;-75
2021/04/11 08:09:21;;;;;;;4.03;1.50;;;;;;;7.87;100.00;101776.41;1856971;77;26279;-75
2021/04/11 08:12:28;;;;;;;3.37;1.30;;;;;;;7.80;100.00;101775.16;1856504;77;26222;-76
2021/04/11 08:15:04;;;;;;;3.10;1.40;;;;;;;7.96;100.00;101777.72;1859379;77;26708;-75
2021/04/11 08:18:09;;;;;;;1.43;1.20;;;;;;;7.88;100.00;101782.22;1847767;77;26218;-75
2021/04/11 08:21:03;;;;;;;2.40;1.20;;;;;;;7.58;100.00;101781.02;1832403;76;26187;-75
2021/04/11 08:23:44;;;;;;;3.53;1.33;;;;;;;7.50;100.00;101786.39;1848146;77;26210;-75
2021/04/11 08:26:50;;;;;;;2.30;1.03;;;;;;;7.54;100.00;101784.82;1848064;77;26190;-75
2021/04/11 08:29:31;;;;;;;2.33;1.00;;;;;;;7.48;100.00;101792.72;1847637;76;26186;-75
2021/04/11 08:32:14;;;;;;;2.13;1.20;;;;;;;7.70;100.00;101793.74;1848128;78;26625;-75
2021/04/11 08:35:13;;;;;;;2.17;1.20;;;;;;;7.81;100.00;101791.21;1848212;78;26244;-75
2021/04/11 08:38:16;;;;;;;3.80;1.43;;;;;;;7.63;100.00;101794.96;1850248;76;26681;-74
2021/04/11 08:41:27;;;;;;;2.27;1.23;;;;;;;7.98;100.00;101801.27;1857404;77;26180;-75
2021/04/11 08:44:08;;;;;;;2.47;1.20;;;;;;;7.91;100.00;101803.88;1857384;76;26735;-73
2021/04/11 08:46:50;;;;;;;3.27;1.40;;;;;;;8.58;100.00;101806.36;1856696;76;26261;-74
2021/04/11 08:49:23;;;;;;;3.13;1.60;;;;;;;8.52;100.00;101805.95;1856719;77;26190;-74
2021/04/11 08:52:01;;;;;;;2.77;1.33;;;;;;;8.38;100.00;101811.52;1856840;77;26238;-73
2021/04/11 08:54:52;;;;;;;3.50;1.40;;;;;;;8.19;100.00;101814.97;1856747;77;26208;-72
2021/04/11 08:57:35;;;;;;;3.23;1.40;;;;;;;8.31;100.00;101813.57;1857403;77;26198;-72
2021/04/11 09:00:16;;;;;;;3.23;1.80;;;;;;;8.44;100.00;101825.73;1856969;77;26265;-73
2021/04/11 09:03:06;;;;;;;2.70;1.80;;;;;;;8.52;100.00;101821.19;1856686;77;26218;-73
2021/04/11 09:05:42;;;;;;;1.90;1.20;;;;;;;8.54;100.00;101825.41;1856980;77;26218;-73
2021/04/11 09:08:17;;;;;;;5.33;1.53;;;;;;;8.49;100.00;101822.53;1856071;76;26317;-73
2021/04/11 09:11:03;;;;;;;2.57;1.57;;;;;;;8.65;100.00;101820.88;1856772;77;26328;-74
2021/04/11 09:13:41;;;;;;;2.70;1.33;;;;;;;8.65;100.00;101828.64;1856963;77;26222;-73
2021/04/11 09:16:15;;;;;;;2.37;1.30;;;;;;;8.85;100.00;101835.12;1856402;76;26246;-73
2021/04/11 09:18:54;;;;;;;3.53;1.50;;;;;;;8.72;100.00;101839.59;1856720;77;26256;-73
2021/04/11 09:21:39;;;;;;;2.23;1.30;;;;;;;8.80;100.00;101846.11;1856282;77;26186;-73
2021/04/11 09:24:13;;;;;;;1.80;1.23;;;;;;;8.59;100.00;101844.05;1855936;76;26254;-73
2021/04/11 09:27:08;;;;;;;1.67;1.20;;;;;;;8.20;100.00;101848.49;1856635;77;26677;-72
2021/04/11 09:29:41;;;;;;;3.77;1.30;;;;;;;7.98;100.00;101846.08;1856061;76;26527;-73
2021/04/11 09:32:34;;;;;;;3.20;1.70;;;;;;;8.17;100.00;101844.27;1855323;77;26682;-73
2021/04/11 09:35:18;;;;;;;3.43;2.00;;;;;;;8.33;100.00;101850.17;1843345;77;26657;-72
2021/04/11 09:38:10;;;;;;;2.50;1.60;;;;;;;8.04;100.00;101850.11;1856310;77;26293;-73
2021/04/11 09:40:54;;;;;;;1.97;1.63;;;;;;;8.15;100.00;101848.38;1857242;76;26222;-72
2021/04/11 09:43:47;;;;;;;3.00;1.87;;;;;;;8.56;100.00;101833.44;1899013;75;26248;-72
2021/04/11 09:47:02;;;;;;;3.93;1.57;;;;;;;9.01;100.00;101847.30;1914410;74;26174;-72
2021/04/11 09:49:43;;;;;;;3.23;1.60;;;;;;;9.11;100.00;101842.76;1902986;75;26187;-73
2021/04/11 09:52:41;;;;;;;3.47;1.80;;;;;;;9.06;100.00;101852.94;1887495;75;26175;-73
2021/04/11 09:55:19;;;;;;;4.00;1.80;;;;;;;8.88;100.00;101849.85;1912894;75;26190;-73
2021/04/11 09:58:09;;;;;;;2.47;1.50;;;;;;;8.75;100.00;101848.78;1914632;75;26222;-73
2021/04/11 10:00:42;;;;;;;2.33;1.70;;;;;;;8.95;100.00;101846.37;1911608;75;26253;-74
2021/04/11 10:03:34;;;;;;;2.43;1.80;;;;;;;9.06;100.00;101848.24;1914935;74;26644;-74
2021/04/11 10:06:18;;;;;;;2.30;1.80;;;;;;;9.01;100.00;101858.39;1914968;74;26667;-73
2021/04/11 10:09:08;;;;;;;3.57;1.50;;;;;;;8.95;100.00;101853.83;1906260;75;26306;-73
2021/04/11 10:11:46;;;;;;;2.80;1.50;;;;;;;8.89;100.00;101848.77;1881444;76;26611;-73
2021/04/11 10:14:27;;;;;;;2.27;1.80;;;;;;;8.85;100.00;101851.75;1880730;76;26626;-73
2021/04/11 10:17:01;;;;;;;2.67;1.70;;;;;;;8.80;100.00;101848.03;1880785;76;26274;-72
2021/04/11 10:19:37;;;;;;;3.53;1.63;;;;;;;8.90;100.00;101853.20;1881561;76;26179;-71
2021/04/11 10:22:31;;;;;;;2.70;1.50;;;;;;;8.76;100.00;101851.01;1881762;76;26630;-72
2021/04/11 10:25:14;;;;;;;2.90;1.30;;;;;;;8.60;100.00;101852.09;1881525;76;26272;-72
2021/04/11 10:27:50;;;;;;;2.17;1.40;;;;;;;8.58;100.00;101852.05;1881884;76;26175;-72
2021/04/11 10:30:21;;;;;;;2.63;1.20;;;;;;;8.58;100.00;101853.44;1881392;76;26666;-71
2021/04/11 10:32:55;;;;;;;3.10;1.00;;;;;;;8.65;100.00;101855.50;1881674;76;26191;-72
2021/04/11 10:35:29;;;;;;;4.27;1.20;;;;;;;9.05;100.00;101856.25;1881495;76;26182;-73
2021/04/11 10:38:04;;;;;;;1.47;1.10;;;;;;;9.53;100.00;101852.89;1881733;76;26199;-72
2021/04/11 10:40:42;;;;;;;4.30;1.60;;;;;;;9.66;100.00;101853.63;1880991;76;26223;-72
2021/04/11 10:43:21;;;;;;;2.83;1.20;;;;;;;9.92;100.00;101850.13;1904771;75;26279;-73
2021/04/11 10:45:54;;;;;;;2.03;0.77;;;;;;;10.01;100.00;101850.79;1904434;75;26182;-73
2021/04/11 10:48:50;;;;;;;1.40;0.90;;;;;;;9.73;100.00;101854.28;1905047;75;26249;-72
2021/04/11 10:51:28;;;;;;;1.83;0.90;;;;;;;9.72;100.00;101860.37;1904822;75;26323;-73
2021/04/11 10:54:09;;;;;;;1.97;0.90;;;;;;;9.20;100.00;101867.31;1905395;75;26186;-73
2021/04/11 10:57:06;;;;;;;1.23;0.90;;;;;;;9.13;100.00;101868.85;1904955;75;26314;-72
2021/04/11 10:59:50;;;;;;;1.63;1.20;;;;;;;9.42;100.00;101872.38;1866279;76;26189;-72
2021/04/11 11:02:35;;;;;;;1.90;0.90;;;;;;;9.50;100.00;101864.47;1904783;75;26654;-73
2021/04/11 11:05:37;;;;;;;2.83;1.00;;;;;;;9.54;100.00;101873.97;1904111;75;26272;-72
2021/04/11 11:08:44;;;;;;;1.63;0.90;;;;;;;9.14;100.00;101874.70;1905207;74;26694;-72
2021/04/11 11:12:06;;;;;;;2.20;0.90;;;;;;;9.03;100.00;101874.20;1904252;75;26182;-72
2021/04/11 11:14:51;;;;;;;1.90;0.87;;;;;;;9.49;100.00;101877.23;1871024;75;26625;-72
2021/04/11 11:17:45;;;;;;;1.80;1.10;;;;;;;9.99;100.00;101871.05;1904980;75;26207;-71
2021/04/11 11:20:27;;;;;;;1.67;1.10;;;;;;;9.45;100.00;101876.90;1862379;76;26205;-71
2021/04/11 11:23:34;;;;;;;1.23;0.87;;;;;;;9.41;100.00;101879.04;1901836;75;26190;-71
2021/04/11 11:26:12;;;;;;;2.57;1.10;;;;;;;9.47;100.00;101878.86;1888385;75;26190;-72
2021/04/11 11:29:12;;;;;;;1.20;0.70;;;;;;;9.84;100.00;101872.77;1844828;76;26737;-70
2021/04/11 11:31:59;;;;;;;2.13;1.10;;;;;;;10.02;100.00;101875.23;1861011;76;26252;-73
2021/04/11 11:34:50;;;;;;;2.60;1.20;;;;;;;9.95;100.00;101873.20;1877678;76;26767;-71
2021/04/11 11:37:27;;;;;;;4.07;1.17;;;;;;;10.28;100.00;101877.83;1874178;76;26742;-72
2021/04/11 11:40:09;;;;;;;3.70;0.97;;;;;;;9.87;100.00;101880.58;1870104;76;26360;-72
2021/04/11 11:42:45;;;;;;;1.03;0.70;;;;;;;9.70;99.70;101882.54;1863628;76;26639;-70
2021/04/11 11:45:19;;;;;;;2.17;1.07;;;;;;;9.69;96.38;101889.17;1904745;75;26249;-71
2021/04/11 11:47:54;;;;;;;1.37;0.83;;;;;;;10.17;100.00;101891.30;1872676;76;26746;-72
2021/04/11 11:50:27;;;;;;;2.03;1.10;;;;;;;10.37;100.00;101882.67;1905041;75;26244;-71
2021/04/11 11:53:00;;;;;;;1.53;1.00;;;;;;;10.40;98.90;101893.26;1905546;74;26307;-71
2021/04/11 11:55:33;;;;;;;2.23;1.03;;;;;;;10.33;95.53;101897.34;1904948;75;26661;-71
2021/04/11 11:58:09;;;;;;;1.60;0.97;;;;;;;9.84;93.11;101893.01;1905150;75;26190;-71
2021/04/11 12:00:42;;;;;;;1.80;1.03;;;;;;;9.79;97.94;101901.28;1905326;75;26183;-72
2021/04/11 12:03:22;;;;;;;3.60;1.70;;;;;;;9.92;99.91;101900.92;1905096;75;26191;-72
2021/04/11 12:05:59;;;;;;;1.97;1.10;;;;;;;9.78;100.00;101905.14;1904751;75;26198;-71
2021/04/11 12:08:38;;;;;;;2.50;1.10;;;;;;;10.00;98.56;101906.58;1905063;74;26210;-72
2021/04/11 12:11:12;;;;;;;2.07;1.20;;;;;;;10.01;100.00;101902.72;1905909;75;26175;-72
2021/04/11 12:13:45;;;;;;;2.50;1.10;;;;;;;10.18;96.64;101906.88;1905580;75;26218;-72
2021/04/11 12:16:22;;;;;;;3.20;1.30;;;;;;;10.14;96.51;101902.89;1905640;74;26224;-72
2021/04/11 12:18:59;;;;;;;2.00;1.40;;;;;;;10.15;96.34;101903.16;1905862;75;26202;-72